Charles City, IA

3:24 PM CST on December 10, 2016 (GMT -0600)
Downtown Charles City | | Change Station
Active Advisory: Winter Storm Warning

Elev 991 ft 43.07 °N, 92.67 °W | Updated 28 seconds ago

Light Snow
Light Snow
17.8 °F
Feels Like 11 °F
N
4.2
Wind Variable Wind from SSE

Today
High -- | Low -- °F
--% Chance of Precip.
Yesterday
High -- | Low -- °F
Precip. -- in
Pressure 30.31 in
Visibility 1.0 miles
Clouds Scattered Clouds 400 ft
Scattered Clouds 2900 ft
Mostly Cloudy 3600 ft
Windchill 11 °F
Dew Point 15 °F
Humidity 88%
Rainfall in
Snow Depth Not available.
7:31 AM 4:35 PM
Waxing Gibbous, 86% visible
METAR KCCY 102115Z AUTO 09007KT 1SM -SN SCT004 SCT029 BKN036 M08/M10 A3031 RMK AO2
Pressure 30.31 in
Visibility 1.0 miles
Clouds Scattered Clouds 400 ft
Scattered Clouds 2900 ft
Mostly Cloudy 3600 ft
Windchill 11 °F
Dew Point 15 °F
Humidity 88%
Rainfall in
Snow Depth Not available.
7:31 AM 4:35 PM
Waxing Gibbous, 86% visible
METAR KCCY 102115Z AUTO 09007KT 1SM -SN SCT004 SCT029 BKN036 M08/M10 A3031 RMK AO2

10-Day Weather Forecast

Almanac

Astronomy

Dec. 10, 2016 Rise Set
Actual Time
Civil Twilight
Nautical Twilight
Astronomical Twilight
Moon
Length of Visible Light
Length of Day
Tomorrow will be .
, % of the Moon is Illuminated

Today's Extremes

State Highs State Lows

Community

WunderPhotos

Upload Photos

1,956,664 photos uploaded!

WunderBlog® & News

Nearby

Air Quality

  Air Quality AQ Index Pollutant
Not available.

Snow Depth

Station Depth Elevation

Earthquake Activity

City Distance Mag. Time & Date
Minimum magnitude displayed is 2.5.

Coastal Water Temperatures

Place Temperature

Stations

Nearby Weather Stations

Station Location Temp. Windchill Dew Point Humidity Wind Precip. Elev Updated Type
                   

Watches & Warnings

Winter Storm Warning
Issued: 1:55 PM CST Dec. 10, 2016 – National Weather Service

... Winter Storm Warning in effect until 6 PM CST Sunday...

The National Weather Service in La Crosse has issued a Winter
Storm Warning for 8 to 9 inches of snowfall... which is in effect
until 6 PM CST Sunday. The Winter Weather Advisory is no longer in
effect.

* Expect snow to increase in intensity going into tonight and
then diminish around 6 PM Sunday.

* The heaviest snowfall rates are expected tonight between
midnight and 6 am.

* Total snow accumulations of 8 to 9 inches are expected.

* Look for significant reductions in visibility at times.

* Plan on difficult driving conditions.

Precautionary/preparedness actions...

A Winter Storm Warning for snow means severe winter weather
conditions are expected. If you must travel... keep an extra
flashlight... food and water in your vehicle in case of an
emergency. The latest Road conditions for the state you are
calling from can be obtained by calling 5 1 1.